Time;durP1;ratioP1;P1;durP2;ratioP2;P2;SDS_P1;SDS_P2;PMS_P1;PMS_P2;Temp;Humidity;BMP_temperature;BMP_pressure;BME280_temperature;BME280_humidity;BME280_pressure;Samples;Min_cycle;Max_cycle;Signal;HPM_P1;HPM_P2
2023/06/11 00:02:21;;;;;;;1.67;1.43;;;;;;;;;;6243930;23;20178;-87
2023/06/11 00:04:50;;;;;;;0.40;0.40;;;;;;;;;;6244946;23;20255;-82
2023/06/11 00:07:21;;;;;;;1.13;1.03;;;;;;;;;;6243809;23;20276;-81
2023/06/11 00:09:49;;;;;;;1.77;1.70;;;;;;;;;;6244826;23;20172;-82
2023/06/11 00:12:18;;;;;;;1.63;1.53;;;;;;;;;;6245635;23;20222;-82
2023/06/11 00:14:46;;;;;;;0.70;0.70;;;;;;;;;;6245824;23;20200;-82
2023/06/11 00:17:15;;;;;;;0.67;0.60;;;;;;;;;;6244863;23;20176;-82
2023/06/11 00:19:44;;;;;;;1.23;1.17;;;;;;;;;;6245879;23;20176;-82
2023/06/11 00:22:14;;;;;;;0.50;0.50;;;;;;;;;;6245434;23;20257;-82
2023/06/11 00:24:44;;;;;;;0.77;0.77;;;;;;;;;;6245594;23;20179;-82
2023/06/11 00:27:13;;;;;;;2.10;1.07;;;;;;;;;;6244785;22;20203;-82
2023/06/11 00:29:41;;;;;;;0.40;0.40;;;;;;;;;;6246115;23;20174;-82
2023/06/11 00:32:10;;;;;;;1.37;1.27;;;;;;;;;;6245504;23;20184;-82
2023/06/11 00:34:38;;;;;;;0.50;0.50;;;;;;;;;;6245240;23;20202;-83
2023/06/11 00:37:07;;;;;;;0.60;0.60;;;;;;;;;;6245586;23;20177;-82
2023/06/11 00:39:35;;;;;;;0.70;0.70;;;;;;;;;;6245778;23;20173;-82
2023/06/11 00:42:09;;;;;;;0.70;0.70;;;;;;;;;;6245082;23;20175;-82
2023/06/11 00:44:39;;;;;;;1.30;1.23;;;;;;;;;;6245329;23;20184;-82
2023/06/11 00:47:09;;;;;;;9.10;4.70;;;;;;;;;;6245137;23;20203;-83
2023/06/11 00:49:37;;;;;;;1.20;1.20;;;;;;;;;;6245918;23;20184;-82
2023/06/11 00:52:09;;;;;;;0.70;0.70;;;;;;;;;;6245925;23;20172;-82
2023/06/11 00:54:39;;;;;;;0.40;0.40;;;;;;;;;;6245351;23;20174;-82
2023/06/11 00:57:10;;;;;;;1.93;1.73;;;;;;;;;;6245617;23;20176;-82
2023/06/11 00:59:39;;;;;;;0.87;0.87;;;;;;;;;;6245293;23;20235;-82
2023/06/11 01:02:11;;;;;;;2.30;1.37;;;;;;;;;;6245409;23;20183;-82
2023/06/11 01:04:41;;;;;;;1.27;1.17;;;;;;;;;;6245096;23;20216;-82
2023/06/11 01:07:11;;;;;;;4.97;2.57;;;;;;;;;;6244605;23;20196;-82
2023/06/11 01:09:40;;;;;;;4.47;1.57;;;;;;;;;;6245286;23;20253;-87
2023/06/11 01:12:12;;;;;;;0.40;0.40;;;;;;;;;;6245564;23;20178;-87
2023/06/11 01:14:42;;;;;;;2.43;0.80;;;;;;;;;;6245596;23;20165;-87
2023/06/11 01:17:15;;;;;;;4.27;1.47;;;;;;;;;;6245069;23;20175;-87
2023/06/11 01:19:56;;;;;;;1.57;1.47;;;;;;;;;;6244919;23;20185;-87
2023/06/11 01:22:29;;;;;;;1.83;1.73;;;;;;;;;;6245144;23;20176;-87
2023/06/11 01:25:10;;;;;;;2.77;2.57;;;;;;;;;;6245195;23;20236;-86
2023/06/11 01:27:43;;;;;;;1.63;1.57;;;;;;;;;;6245288;22;20204;-87
2023/06/11 01:30:17;;;;;;;2.20;1.93;;;;;;;;;;6245952;23;20209;-87
2023/06/11 01:32:47;;;;;;;3.60;3.30;;;;;;;;;;6244912;23;20170;-87
2023/06/11 01:35:16;;;;;;;6.43;2.10;;;;;;;;;;6245164;23;20205;-87
2023/06/11 01:37:45;;;;;;;1.27;1.17;;;;;;;;;;6244931;23;20236;-87
2023/06/11 01:40:14;;;;;;;5.60;3.37;;;;;;;;;;6245750;23;20208;-87
2023/06/11 01:42:43;;;;;;;1.43;0.90;;;;;;;;;;6244923;23;20199;-87
2023/06/11 01:45:12;;;;;;;4.30;3.27;;;;;;;;;;6244914;23;20173;-87
2023/06/11 01:47:41;;;;;;;3.07;2.43;;;;;;;;;;6245632;23;20204;-87
2023/06/11 01:50:10;;;;;;;3.53;2.10;;;;;;;;;;6244870;23;20177;-87
2023/06/11 01:52:39;;;;;;;3.60;1.63;;;;;;;;;;6245245;23;20175;-87
2023/06/11 01:55:08;;;;;;;2.07;1.87;;;;;;;;;;6245619;23;20182;-87
2023/06/11 01:57:37;;;;;;;0.60;0.60;;;;;;;;;;6245115;23;20259;-87
2023/06/11 02:00:09;;;;;;;0.90;0.90;;;;;;;;;;6245018;23;20271;-87
2023/06/11 02:02:39;;;;;;;2.20;2.03;;;;;;;;;;6245047;23;20184;-87
2023/06/11 02:05:10;;;;;;;0.97;0.97;;;;;;;;;;6245447;23;20181;-87
2023/06/11 02:07:39;;;;;;;0.80;0.80;;;;;;;;;;6244720;23;20202;-87
2023/06/11 02:10:08;;;;;;;1.13;1.13;;;;;;;;;;6244819;23;20173;-87
2023/06/11 02:12:36;;;;;;;2.37;2.20;;;;;;;;;;6245335;23;20203;-87
2023/06/11 02:15:05;;;;;;;2.40;1.73;;;;;;;;;;6244992;23;20178;-86
2023/06/11 02:17:34;;;;;;;1.27;1.27;;;;;;;;;;6245329;23;20184;-86
2023/06/11 02:20:05;;;;;;;10.63;4.10;;;;;;;;;;6245197;23;20174;-86
2023/06/11 02:22:36;;;;;;;2.73;2.50;;;;;;;;;;6244305;23;20183;-82
2023/06/11 02:25:04;;;;;;;1.40;1.30;;;;;;;;;;6243955;23;20199;-87
2023/06/11 02:27:33;;;;;;;4.80;3.43;;;;;;;;;;6245254;22;20203;-87
2023/06/11 02:30:02;;;;;;;1.03;1.03;;;;;;;;;;6244577;23;20180;-87
2023/06/11 02:32:30;;;;;;;5.77;2.43;;;;;;;;;;6244713;23;20188;-87
2023/06/11 02:34:59;;;;;;;1.00;0.93;;;;;;;;;;6244386;23;20295;-87
2023/06/11 02:37:27;;;;;;;3.70;2.63;;;;;;;;;;6244966;23;20187;-87
2023/06/11 02:39:57;;;;;;;2.13;1.90;;;;;;;;;;6244809;23;20171;-87
2023/06/11 02:42:26;;;;;;;1.90;1.80;;;;;;;;;;6244267;23;20184;-87
2023/06/11 02:44:55;;;;;;;8.50;5.10;;;;;;;;;;6244760;23;20190;-87
2023/06/11 02:47:23;;;;;;;7.00;3.70;;;;;;;;;;6245271;23;20187;-87
2023/06/11 02:49:52;;;;;;;5.07;3.87;;;;;;;;;;6244453;23;20178;-87
2023/06/11 02:52:20;;;;;;;1.77;1.67;;;;;;;;;;6245182;23;20186;-87
2023/06/11 02:54:49;;;;;;;2.43;1.03;;;;;;;;;;6244386;23;20242;-87
2023/06/11 02:57:19;;;;;;;5.57;2.60;;;;;;;;;;6244378;23;20178;-87
2023/06/11 02:59:47;;;;;;;10.67;5.17;;;;;;;;;;6243998;23;20176;-87
2023/06/11 03:02:16;;;;;;;4.53;1.33;;;;;;;;;;6245217;23;20171;-87
2023/06/11 03:04:44;;;;;;;0.40;0.40;;;;;;;;;;6244699;23;20214;-87
2023/06/11 03:07:13;;;;;;;6.07;3.00;;;;;;;;;;6244404;23;20178;-87
2023/06/11 03:09:41;;;;;;;0.50;0.50;;;;;;;;;;6244470;23;20198;-87
2023/06/11 03:12:11;;;;;;;0.63;0.63;;;;;;;;;;6244808;23;20181;-87
2023/06/11 03:14:41;;;;;;;1.33;1.33;;;;;;;;;;6244080;23;20205;-87
2023/06/11 03:17:09;;;;;;;2.03;1.93;;;;;;;;;;6244418;23;20180;-87
2023/06/11 03:19:37;;;;;;;4.03;3.27;;;;;;;;;;6244518;23;20177;-86
2023/06/11 03:22:06;;;;;;;0.50;0.50;;;;;;;;;;6244532;23;20203;-87
2023/06/11 03:24:35;;;;;;;0.30;0.30;;;;;;;;;;6243802;23;20175;-87
2023/06/11 03:27:03;;;;;;;0.47;0.47;;;;;;;;;;6244874;22;20206;-87
2023/06/11 03:29:31;;;;;;;4.97;3.93;;;;;;;;;;6244595;23;20190;-87
2023/06/11 03:32:01;;;;;;;7.33;3.77;;;;;;;;;;6244076;23;20181;-87
2023/06/11 03:34:30;;;;;;;0.50;0.50;;;;;;;;;;6244269;23;20176;-87
2023/06/11 03:36:58;;;;;;;0.80;0.80;;;;;;;;;;6244955;23;20189;-87
2023/06/11 03:39:27;;;;;;;0.93;0.83;;;;;;;;;;6244249;23;20176;-87
2023/06/11 03:41:55;;;;;;;1.90;1.40;;;;;;;;;;6244276;23;20182;-87
2023/06/11 03:44:24;;;;;;;4.13;3.83;;;;;;;;;;6245806;23;20182;-87
2023/06/11 03:46:52;;;;;;;2.20;2.07;;;;;;;;;;6246369;23;20186;-87
2023/06/11 03:49:22;;;;;;;6.37;5.73;;;;;;;;;;6245801;23;20199;-86
2023/06/11 03:51:51;;;;;;;4.23;2.03;;;;;;;;;;6246966;23;20188;-87
2023/06/11 03:54:19;;;;;;;1.03;0.97;;;;;;;;;;6246679;23;20185;-87
2023/06/11 03:56:48;;;;;;;2.40;2.20;;;;;;;;;;6245639;23;20181;-87
2023/06/11 03:59:16;;;;;;;4.70;3.80;;;;;;;;;;6245243;23;20175;-87
2023/06/11 04:01:45;;;;;;;2.53;1.90;;;;;;;;;;6246842;23;20185;-87
2023/06/11 04:04:13;;;;;;;2.37;1.53;;;;;;;;;;6246657;23;20176;-82
2023/06/11 04:06:43;;;;;;;4.13;3.37;;;;;;;;;;6245766;23;20186;-82
2023/06/11 04:09:11;;;;;;;6.70;5.37;;;;;;;;;;6245880;23;20202;-82
2023/06/11 04:11:40;;;;;;;2.00;0.83;;;;;;;;;;6246275;23;20180;-83
2023/06/11 04:14:08;;;;;;;1.60;1.43;;;;;;;;;;6245733;23;20177;-82
2023/06/11 04:16:37;;;;;;;0.87;0.87;;;;;;;;;;6245939;23;20176;-82
2023/06/11 04:19:05;;;;;;;1.50;1.40;;;;;;;;;;6245679;23;20248;-82
2023/06/11 04:21:34;;;;;;;3.10;2.83;;;;;;;;;;6245695;23;20186;-82
2023/06/11 04:24:04;;;;;;;1.37;1.27;;;;;;;;;;6245562;23;20185;-82
2023/06/11 04:26:36;;;;;;;1.70;1.60;;;;;;;;;;6245496;22;20189;-82
2023/06/11 04:29:05;;;;;;;2.37;2.27;;;;;;;;;;6245267;23;20223;-82
2023/06/11 04:31:33;;;;;;;2.93;2.43;;;;;;;;;;6245140;23;20179;-82
2023/06/11 04:34:03;;;;;;;26.03;23.93;;;;;;;;;;6246044;23;20179;-87
2023/06/11 04:36:31;;;;;;;0.40;0.40;;;;;;;;;;6245477;23;20259;-87
2023/06/11 04:39:04;;;;;;;1.47;1.47;;;;;;;;;;6244993;23;20175;-83
2023/06/11 04:41:36;;;;;;;1.63;1.60;;;;;;;;;;6245557;23;20174;-83
2023/06/11 04:44:05;;;;;;;0.30;0.30;;;;;;;;;;6245462;23;20169;-82
2023/06/11 04:46:34;;;;;;;0.67;0.67;;;;;;;;;;6245497;23;20181;-82
2023/06/11 04:49:04;;;;;;;1.80;1.70;;;;;;;;;;6244441;23;20218;-82
2023/06/11 04:51:33;;;;;;;0.87;0.87;;;;;;;;;;6245230;23;20168;-82
2023/06/11 04:54:07;;;;;;;1.27;1.27;;;;;;;;;;6245405;23;20173;-82
2023/06/11 04:56:37;;;;;;;1.93;1.83;;;;;;;;;;6244731;23;20185;-82
2023/06/11 04:59:06;;;;;;;2.53;2.30;;;;;;;;;;6244808;23;20190;-82
2023/06/11 05:01:37;;;;;;;4.73;2.77;;;;;;;;;;6245236;23;20184;-87
2023/06/11 05:04:06;;;;;;;2.00;1.70;;;;;;;;;;6246215;23;20182;-87
2023/06/11 05:06:34;;;;;;;2.17;2.07;;;;;;;;;;6245093;23;20181;-87
2023/06/11 05:09:04;;;;;;;3.93;2.30;;;;;;;;;;6245346;23;20221;-88
2023/06/11 05:11:32;;;;;;;1.23;1.13;;;;;;;;;;6245626;23;20170;-87
2023/06/11 05:14:02;;;;;;;2.83;2.63;;;;;;;;;;6244938;23;20184;-82
2023/06/11 05:16:31;;;;;;;3.80;2.67;;;;;;;;;;6245319;23;20177;-82
2023/06/11 05:19:01;;;;;;;9.63;5.00;;;;;;;;;;6245572;23;20168;-82
2023/06/11 05:21:29;;;;;;;2.63;2.43;;;;;;;;;;6244602;23;20180;-82
2023/06/11 05:24:06;;;;;;;1.93;1.83;;;;;;;;;;6244749;23;20177;-82
2023/06/11 05:26:36;;;;;;;1.33;1.30;;;;;;;;;;6244974;23;20251;-82
2023/06/11 05:29:06;;;;;;;1.30;1.30;;;;;;;;;;6245037;23;20200;-82
2023/06/11 05:31:35;;;;;;;1.17;1.07;;;;;;;;;;6244743;23;20192;-82
2023/06/11 05:34:04;;;;;;;1.80;1.77;;;;;;;;;;6245013;23;20169;-82
2023/06/11 05:36:33;;;;;;;1.60;1.53;;;;;;;;;;6244707;23;20212;-82
2023/06/11 05:39:02;;;;;;;1.90;1.77;;;;;;;;;;6244433;23;20179;-82
2023/06/11 05:41:30;;;;;;;3.13;2.47;;;;;;;;;;6244952;23;20209;-82
2023/06/11 05:43:59;;;;;;;1.30;1.20;;;;;;;;;;6245082;23;20179;-82
2023/06/11 05:46:29;;;;;;;0.53;0.50;;;;;;;;;;6244794;23;20236;-82
2023/06/11 05:48:58;;;;;;;2.00;0.97;;;;;;;;;;6244270;23;20201;-88
2023/06/11 05:51:27;;;;;;;1.83;1.73;;;;;;;;;;6244626;23;20169;-82
2023/06/11 05:53:55;;;;;;;0.90;0.90;;;;;;;;;;6244760;23;20178;-82
2023/06/11 05:56:25;;;;;;;0.73;0.73;;;;;;;;;;6245092;23;20229;-82
2023/06/11 05:58:53;;;;;;;1.63;1.53;;;;;;;;;;6244887;23;20177;-82
2023/06/11 06:01:22;;;;;;;2.90;2.70;;;;;;;;;;6245009;23;20237;-82
2023/06/11 06:03:52;;;;;;;8.57;1.50;;;;;;;;;;6244127;23;20184;-82
2023/06/11 06:06:21;;;;;;;0.50;0.50;;;;;;;;;;6244130;23;20250;-87
2023/06/11 06:08:49;;;;;;;6.00;3.33;;;;;;;;;;6244895;23;20207;-88
2023/06/11 06:11:18;;;;;;;0.77;0.77;;;;;;;;;;6245669;23;20203;-88
2023/06/11 06:13:47;;;;;;;2.30;2.20;;;;;;;;;;6244778;23;20181;-87
2023/06/11 06:16:15;;;;;;;3.77;2.87;;;;;;;;;;6244926;23;20170;-88
2023/06/11 06:18:44;;;;;;;2.93;2.43;;;;;;;;;;6244179;23;20219;-88
2023/06/11 06:21:14;;;;;;;3.50;3.27;;;;;;;;;;6244700;23;20186;-88
2023/06/11 06:23:42;;;;;;;1.37;1.33;;;;;;;;;;6245055;23;20181;-87
2023/06/11 06:26:12;;;;;;;1.50;1.40;;;;;;;;;;6245297;23;20177;-87
2023/06/11 06:28:40;;;;;;;4.17;2.80;;;;;;;;;;6244639;22;20253;-87
2023/06/11 06:31:12;;;;;;;1.60;1.50;;;;;;;;;;6244546;23;20208;-88
2023/06/11 06:33:40;;;;;;;2.60;2.40;;;;;;;;;;6244745;23;20204;-88
2023/06/11 06:36:09;;;;;;;1.50;1.40;;;;;;;;;;6244815;23;20213;-88
2023/06/11 06:38:40;;;;;;;1.00;0.73;;;;;;;;;;6244790;23;20172;-88
2023/06/11 06:41:08;;;;;;;3.37;3.07;;;;;;;;;;6245012;23;20264;-87
2023/06/11 06:43:37;;;;;;;2.33;2.13;;;;;;;;;;6244527;23;20181;-88
2023/06/11 06:46:05;;;;;;;2.67;2.33;;;;;;;;;;6244727;23;20192;-88
2023/06/11 06:48:34;;;;;;;5.03;4.40;;;;;;;;;;6244186;23;20224;-88
2023/06/11 06:51:02;;;;;;;2.63;2.33;;;;;;;;;;6244721;23;20200;-87
2023/06/11 06:53:31;;;;;;;3.37;3.07;;;;;;;;;;6244970;23;20251;-88
2023/06/11 06:56:02;;;;;;;2.13;1.93;;;;;;;;;;6244207;23;20180;-88
2023/06/11 06:58:30;;;;;;;3.20;3.00;;;;;;;;;;6244493;23;20175;-88
2023/06/11 07:00:58;;;;;;;2.83;2.63;;;;;;;;;;6244981;23;20170;-88
2023/06/11 07:03:27;;;;;;;1.57;1.50;;;;;;;;;;6244609;23;20238;-88
2023/06/11 07:05:55;;;;;;;5.70;4.60;;;;;;;;;;6244176;23;20183;-88
2023/06/11 07:08:24;;;;;;;1.80;1.77;;;;;;;;;;6244544;23;20183;-88
2023/06/11 07:10:54;;;;;;;2.80;2.20;;;;;;;;;;6244619;23;20195;-88
2023/06/11 07:13:23;;;;;;;3.13;2.83;;;;;;;;;;6244715;23;20175;-88
2023/06/11 07:15:52;;;;;;;4.77;3.00;;;;;;;;;;6244768;23;20177;-88
2023/06/11 07:18:21;;;;;;;2.70;2.27;;;;;;;;;;6244395;23;20187;-88
2023/06/11 07:20:49;;;;;;;2.57;2.40;;;;;;;;;;6244288;23;20179;-88
2023/06/11 07:23:18;;;;;;;3.73;2.93;;;;;;;;;;6243867;23;20182;-88
2023/06/11 07:25:50;;;;;;;4.03;3.07;;;;;;;;;;6244635;23;20203;-88
2023/06/11 07:28:18;;;;;;;5.70;2.97;;;;;;;;;;6244152;22;20195;-87
2023/06/11 07:30:48;;;;;;;2.87;2.67;;;;;;;;;;6243915;23;20189;-88
2023/06/11 07:33:17;;;;;;;7.37;4.80;;;;;;;;;;6244701;23;20171;-87
2023/06/11 07:35:48;;;;;;;2.53;2.20;;;;;;;;;;6244583;23;20273;-88
2023/06/11 07:38:17;;;;;;;3.93;2.83;;;;;;;;;;6243964;23;20245;-82
2023/06/11 07:40:46;;;;;;;7.57;5.20;;;;;;;;;;6243697;23;20168;-82
2023/06/11 07:43:14;;;;;;;5.00;4.27;;;;;;;;;;6244222;23;20237;-82
2023/06/11 07:45:43;;;;;;;3.33;2.13;;;;;;;;;;6243032;23;20179;-82
2023/06/11 07:48:13;;;;;;;4.37;2.53;;;;;;;;;;6243653;23;20177;-88
2023/06/11 07:50:42;;;;;;;3.63;2.70;;;;;;;;;;6244243;23;20241;-88
2023/06/11 07:53:12;;;;;;;3.97;3.67;;;;;;;;;;6244587;23;20170;-88
2023/06/11 07:55:41;;;;;;;6.03;3.90;;;;;;;;;;6243878;23;20204;-88
2023/06/11 07:58:09;;;;;;;2.67;2.47;;;;;;;;;;6244155;23;20189;-88
2023/06/11 08:00:38;;;;;;;5.53;5.03;;;;;;;;;;6243952;23;20165;-88
2023/06/11 08:03:08;;;;;;;5.63;1.33;;;;;;;;;;6243969;23;20182;-88
2023/06/11 08:05:38;;;;;;;4.90;4.40;;;;;;;;;;6244022;23;20170;-88
2023/06/11 08:08:07;;;;;;;1.83;1.73;;;;;;;;;;6244333;23;20178;-88
2023/06/11 08:10:36;;;;;;;3.23;2.70;;;;;;;;;;6244309;23;20228;-82
2023/06/11 08:13:05;;;;;;;4.43;4.03;;;;;;;;;;6243118;23;20174;-82
2023/06/11 08:15:33;;;;;;;3.13;2.43;;;;;;;;;;6244024;23;20173;-82
2023/06/11 08:18:06;;;;;;;6.77;3.07;;;;;;;;;;6243177;23;20178;-89
2023/06/11 08:20:35;;;;;;;0.90;0.90;;;;;;;;;;6245674;23;20218;-89
2023/06/11 08:23:05;;;;;;;1.77;1.67;;;;;;;;;;6245871;23;20183;-88
2023/06/11 08:25:36;;;;;;;12.37;4.57;;;;;;;;;;6239279;23;20336;-88
2023/06/11 08:28:05;;;;;;;5.27;4.80;;;;;;;;;;6233944;22;20199;-89
2023/06/11 08:30:34;;;;;;;14.30;3.53;;;;;;;;;;6233392;23;20203;-88
2023/06/11 08:33:02;;;;;;;2.97;2.77;;;;;;;;;;6244051;23;20196;-89
2023/06/11 08:35:31;;;;;;;3.20;2.93;;;;;;;;;;6247236;23;20281;-89
2023/06/11 08:37:59;;;;;;;6.33;5.77;;;;;;;;;;6246780;23;20199;-89
2023/06/11 08:40:30;;;;;;;6.17;4.67;;;;;;;;;;6247254;23;20180;-89
2023/06/11 08:43:02;;;;;;;5.97;4.70;;;;;;;;;;6245369;23;20200;-89
2023/06/11 08:45:30;;;;;;;5.17;4.70;;;;;;;;;;6245333;23;20195;-82
2023/06/11 08:48:03;;;;;;;6.50;5.10;;;;;;;;;;6243598;23;20188;-89
2023/06/11 08:50:32;;;;;;;3.93;3.47;;;;;;;;;;6245357;23;20195;-82
2023/06/11 08:53:01;;;;;;;4.17;3.63;;;;;;;;;;6243660;23;20227;-82
2023/06/11 08:55:34;;;;;;;1.90;1.53;;;;;;;;;;6243329;23;20254;-81
2023/06/11 08:58:02;;;;;;;5.83;3.27;;;;;;;;;;6243046;23;20200;-88
2023/06/11 09:00:31;;;;;;;5.33;4.83;;;;;;;;;;6243905;23;20196;-89
2023/06/11 09:02:59;;;;;;;2.37;2.13;;;;;;;;;;6244358;23;20199;-89
2023/06/11 09:05:28;;;;;;;2.07;1.97;;;;;;;;;;6244567;23;20198;-89
2023/06/11 09:07:57;;;;;;;4.23;3.73;;;;;;;;;;6244213;23;20234;-89
2023/06/11 09:10:25;;;;;;;5.43;3.70;;;;;;;;;;6244456;23;20189;-89
2023/06/11 09:12:55;;;;;;;1.57;1.47;;;;;;;;;;6244467;23;20200;-89
2023/06/11 09:15:26;;;;;;;4.83;4.03;;;;;;;;;;6244471;23;20201;-89
2023/06/11 09:17:54;;;;;;;4.97;4.57;;;;;;;;;;6244244;23;20207;-89
2023/06/11 09:20:23;;;;;;;3.83;3.40;;;;;;;;;;6243738;23;20199;-89
2023/06/11 09:22:54;;;;;;;6.43;5.87;;;;;;;;;;6244044;23;20194;-81
2023/06/11 09:25:23;;;;;;;5.30;3.10;;;;;;;;;;6244310;23;20243;-81
2023/06/11 09:27:51;;;;;;;3.40;3.03;;;;;;;;;;6243116;22;20196;-81
2023/06/11 09:30:21;;;;;;;4.20;3.90;;;;;;;;;;6243506;23;20197;-81
2023/06/11 09:32:50;;;;;;;1.10;1.10;;;;;;;;;;6242129;23;20260;-81
2023/06/11 09:35:19;;;;;;;6.53;4.97;;;;;;;;;;6242554;23;20204;-81
2023/06/11 09:37:52;;;;;;;3.33;3.13;;;;;;;;;;6244637;23;20264;-82
2023/06/11 09:40:24;;;;;;;3.60;3.13;;;;;;;;;;6244674;23;20202;-82
2023/06/11 09:42:56;;;;;;;4.73;3.97;;;;;;;;;;6243817;23;20189;-82
2023/06/11 09:45:26;;;;;;;6.33;5.73;;;;;;;;;;6244884;23;20204;-81
2023/06/11 09:47:58;;;;;;;4.30;2.93;;;;;;;;;;6243232;23;20185;-82
2023/06/11 09:50:27;;;;;;;6.20;4.93;;;;;;;;;;6242829;23;20200;-82
2023/06/11 09:52:56;;;;;;;5.10;3.73;;;;;;;;;;6242504;23;20280;-82
2023/06/11 09:55:26;;;;;;;3.63;3.17;;;;;;;;;;6242954;23;20197;-81
2023/06/11 09:57:57;;;;;;;5.37;4.87;;;;;;;;;;6243199;23;20190;-82
2023/06/11 10:00:27;;;;;;;2.93;2.73;;;;;;;;;;6244719;23;20192;-81
2023/06/11 10:02:56;;;;;;;3.53;3.23;;;;;;;;;;6245136;23;20184;-82
2023/06/11 10:05:26;;;;;;;4.97;3.77;;;;;;;;;;6243167;23;20236;-82
2023/06/11 10:07:59;;;;;;;6.70;6.00;;;;;;;;;;6243012;23;20217;-82
2023/06/11 10:10:28;;;;;;;6.90;5.87;;;;;;;;;;6242614;23;20197;-82
2023/06/11 10:12:56;;;;;;;6.97;4.77;;;;;;;;;;6243165;23;20209;-82
2023/06/11 10:15:25;;;;;;;5.17;4.67;;;;;;;;;;6243920;23;20193;-89
2023/06/11 10:17:56;;;;;;;3.50;2.63;;;;;;;;;;6243935;23;20231;-89
2023/06/11 10:20:27;;;;;;;5.07;4.70;;;;;;;;;;6243330;23;20269;-89
2023/06/11 10:23:06;;;;;;;6.37;5.77;;;;;;;;;;6243520;23;20190;-89
2023/06/11 10:25:36;;;;;;;3.53;3.13;;;;;;;;;;6244068;22;20205;-89
2023/06/11 10:28:05;;;;;;;2.63;2.40;;;;;;;;;;6243313;22;20212;-90
2023/06/11 10:30:34;;;;;;;4.53;3.33;;;;;;;;;;6243579;23;20217;-89
2023/06/11 10:33:04;;;;;;;4.27;3.87;;;;;;;;;;6243453;23;20208;-89
2023/06/11 10:35:33;;;;;;;2.87;2.53;;;;;;;;;;6243202;23;20240;-89
2023/06/11 10:38:03;;;;;;;4.47;4.07;;;;;;;;;;6243662;23;20195;-89
2023/06/11 10:40:32;;;;;;;2.77;2.50;;;;;;;;;;6244110;23;20190;-92
2023/06/11 10:43:04;;;;;;;3.83;3.43;;;;;;;;;;6243575;23;20232;-92
2023/06/11 10:45:37;;;;;;;2.10;1.90;;;;;;;;;;6244347;23;20280;-91
2023/06/11 10:48:07;;;;;;;4.00;3.63;;;;;;;;;;6244291;23;20194;-93
2023/06/11 10:50:36;;;;;;;6.27;5.10;;;;;;;;;;6244913;23;20190;-93
2023/06/11 10:53:10;;;;;;;12.83;3.37;;;;;;;;;;6244040;23;20260;-91
2023/06/11 10:55:42;;;;;;;200.63;42.13;;;;;;;;;;6245536;23;20190;-91
2023/06/11 10:58:11;;;;;;;3.13;2.83;;;;;;;;;;6243784;23;20288;-92
2023/06/11 11:00:39;;;;;;;3.30;3.10;;;;;;;;;;6241945;23;20193;-92
2023/06/11 11:03:10;;;;;;;5.50;5.07;;;;;;;;;;6243816;23;20209;-88
2023/06/11 11:05:42;;;;;;;3.67;3.37;;;;;;;;;;6242439;23;20185;-87
2023/06/11 11:08:11;;;;;;;6.93;5.43;;;;;;;;;;6242172;23;20189;-87
2023/06/11 11:10:40;;;;;;;4.73;4.23;;;;;;;;;;6242244;23;20189;-86
2023/06/11 11:13:08;;;;;;;7.03;6.33;;;;;;;;;;6242553;23;20201;-87
2023/06/11 11:15:37;;;;;;;3.97;3.57;;;;;;;;;;6242902;23;20198;-87
2023/06/11 11:18:05;;;;;;;7.30;4.37;;;;;;;;;;6241505;23;20196;-86
2023/06/11 11:20:35;;;;;;;3.57;3.27;;;;;;;;;;6243376;23;20197;-87
2023/06/11 11:23:04;;;;;;;2.20;2.07;;;;;;;;;;6243582;23;20193;-81
2023/06/11 11:25:33;;;;;;;6.50;5.90;;;;;;;;;;6242222;23;20202;-80
2023/06/11 11:28:02;;;;;;;6.27;5.63;;;;;;;;;;6242308;22;20193;-81
2023/06/11 11:30:30;;;;;;;6.23;5.17;;;;;;;;;;6242577;23;20200;-81
2023/06/11 11:33:00;;;;;;;4.80;4.03;;;;;;;;;;6241212;23;20185;-81
2023/06/11 11:35:29;;;;;;;6.37;5.53;;;;;;;;;;6241420;23;20209;-81
2023/06/11 11:37:59;;;;;;;5.43;4.30;;;;;;;;;;6241632;23;20228;-86
2023/06/11 11:40:31;;;;;;;5.83;4.23;;;;;;;;;;6242112;23;20165;-81
2023/06/11 11:42:59;;;;;;;4.00;3.60;;;;;;;;;;6244760;23;20166;-86
2023/06/11 11:45:31;;;;;;;9.93;4.47;;;;;;;;;;6245188;23;20216;-87
2023/06/11 11:48:03;;;;;;;4.87;4.30;;;;;;;;;;6242933;23;20199;-81
2023/06/11 11:50:33;;;;;;;3.00;2.77;;;;;;;;;;6242843;23;20189;-80
2023/06/11 11:53:04;;;;;;;4.67;4.27;;;;;;;;;;6242598;23;20236;-81
2023/06/11 11:55:36;;;;;;;3.67;1.47;;;;;;;;;;6244082;23;20229;-80
2023/06/11 11:58:25;;;;;;;7.07;5.40;;;;;;;;;;6243363;23;20173;-81
2023/06/11 12:00:56;;;;;;;5.70;3.87;;;;;;;;;;6242857;23;20225;-81
2023/06/11 12:03:25;;;;;;;3.77;3.47;;;;;;;;;;6243537;23;20165;-81
2023/06/11 12:05:58;;;;;;;1.60;1.50;;;;;;;;;;6245776;23;20166;-81
2023/06/11 12:08:29;;;;;;;7.20;6.50;;;;;;;;;;6245452;23;20182;-81
2023/06/11 12:10:57;;;;;;;3.83;3.40;;;;;;;;;;6245997;23;20250;-81
2023/06/11 12:13:26;;;;;;;4.30;3.60;;;;;;;;;;6245815;23;20280;-81
2023/06/11 12:15:55;;;;;;;4.87;4.43;;;;;;;;;;6244638;23;20268;-82
2023/06/11 12:18:24;;;;;;;4.30;3.77;;;;;;;;;;6245346;23;20180;-82
2023/06/11 12:20:53;;;;;;;4.83;4.40;;;;;;;;;;6246313;23;20174;-82
2023/06/11 12:23:21;;;;;;;4.47;4.03;;;;;;;;;;6245497;23;20226;-82
2023/06/11 12:25:51;;;;;;;5.63;5.13;;;;;;;;;;6245445;23;20177;-82
2023/06/11 12:28:20;;;;;;;2.80;2.60;;;;;;;;;;6245155;22;20189;-82
2023/06/11 12:30:48;;;;;;;1.87;1.77;;;;;;;;;;6245811;23;20196;-82
2023/06/11 12:33:17;;;;;;;2.27;2.13;;;;;;;;;;6245444;23;20194;-81
2023/06/11 12:35:45;;;;;;;2.63;2.43;;;;;;;;;;6245021;23;20201;-82
2023/06/11 12:38:15;;;;;;;7.70;6.90;;;;;;;;;;6245270;23;20180;-82
2023/06/11 12:40:43;;;;;;;3.53;3.23;;;;;;;;;;6245327;23;20201;-82
2023/06/11 12:43:13;;;;;;;7.50;4.77;;;;;;;;;;6245210;23;20214;-82
2023/06/11 12:45:41;;;;;;;3.83;3.43;;;;;;;;;;6245836;23;20174;-81
2023/06/11 12:48:11;;;;;;;2.80;2.60;;;;;;;;;;6245096;23;20205;-82
2023/06/11 12:50:40;;;;;;;3.20;2.90;;;;;;;;;;6245646;23;20181;-82
2023/06/11 12:53:08;;;;;;;4.70;4.00;;;;;;;;;;6245702;23;20202;-81
2023/06/11 12:55:37;;;;;;;3.33;2.63;;;;;;;;;;6245800;23;20178;-82
2023/06/11 12:58:05;;;;;;;5.63;5.13;;;;;;;;;;6245482;23;20178;-88
2023/06/11 13:00:35;;;;;;;6.30;5.70;;;;;;;;;;6245563;23;20185;-87
2023/06/11 13:03:04;;;;;;;5.27;3.93;;;;;;;;;;6245807;23;20181;-88
2023/06/11 13:05:32;;;;;;;3.63;3.33;;;;;;;;;;6245783;23;20169;-87
2023/06/11 13:08:01;;;;;;;4.63;3.07;;;;;;;;;;6245621;23;20178;-88
2023/06/11 13:10:29;;;;;;;6.47;4.03;;;;;;;;;;6245148;23;20181;-87
2023/06/11 13:12:58;;;;;;;2.97;2.30;;;;;;;;;;6245294;23;20188;-87
2023/06/11 13:15:26;;;;;;;7.57;5.80;;;;;;;;;;6244318;23;20179;-87
2023/06/11 13:17:57;;;;;;;5.40;4.90;;;;;;;;;;6245152;23;20169;-87
2023/06/11 13:20:26;;;;;;;3.60;3.30;;;;;;;;;;6245017;23;20177;-87
2023/06/11 13:22:54;;;;;;;6.77;3.67;;;;;;;;;;6244933;23;20208;-81
2023/06/11 13:25:23;;;;;;;8.63;4.83;;;;;;;;;;6244399;23;20170;-82
2023/06/11 13:27:51;;;;;;;6.43;4.23;;;;;;;;;;6245111;22;20204;-87
2023/06/11 13:30:20;;;;;;;4.43;4.03;;;;;;;;;;6244813;23;20166;-87
2023/06/11 13:32:48;;;;;;;4.37;3.97;;;;;;;;;;6244813;23;20182;-88
2023/06/11 13:35:18;;;;;;;5.27;3.23;;;;;;;;;;6244985;23;20248;-87
2023/06/11 13:37:47;;;;;;;3.03;2.73;;;;;;;;;;6244950;23;20177;-88
2023/06/11 13:40:15;;;;;;;4.47;3.30;;;;;;;;;;6245232;23;20196;-87
2023/06/11 13:42:44;;;;;;;6.50;5.90;;;;;;;;;;6244316;23;20174;-82
2023/06/11 13:45:13;;;;;;;4.00;3.63;;;;;;;;;;6244875;23;20225;-82
2023/06/11 13:47:41;;;;;;;2.63;2.43;;;;;;;;;;6244946;23;20180;-82
2023/06/11 13:50:10;;;;;;;3.10;2.67;;;;;;;;;;6244729;23;20174;-81
2023/06/11 13:52:41;;;;;;;3.93;3.63;;;;;;;;;;6244915;23;20174;-82
2023/06/11 13:55:10;;;;;;;7.50;4.30;;;;;;;;;;6245143;23;20208;-81
2023/06/11 13:57:39;;;;;;;4.73;4.23;;;;;;;;;;6244918;23;20197;-82
2023/06/11 14:00:08;;;;;;;8.47;4.00;;;;;;;;;;6244249;23;20185;-82
2023/06/11 14:02:37;;;;;;;4.60;3.43;;;;;;;;;;6244504;23;20237;-82
2023/06/11 14:05:06;;;;;;;1.70;1.60;;;;;;;;;;6244680;23;20236;-81
2023/06/11 14:07:36;;;;;;;3.33;3.10;;;;;;;;;;6241939;23;20177;-82
2023/06/11 14:10:07;;;;;;;5.40;4.90;;;;;;;;;;6243834;23;20174;-82
2023/06/11 14:12:36;;;;;;;2.87;2.53;;;;;;;;;;6214902;23;20327;-82
2023/06/11 14:15:05;;;;;;;5.20;2.67;;;;;;;;;;6224374;23;20216;-82
2023/06/11 14:17:35;;;;;;;8.20;2.97;;;;;;;;;;6233127;23;20189;-82
2023/06/11 14:20:04;;;;;;;5.30;3.50;;;;;;;;;;6243244;23;20267;-81
2023/06/11 14:22:32;;;;;;;3.50;3.10;;;;;;;;;;6244210;23;20190;-82
2023/06/11 14:25:01;;;;;;;5.33;3.43;;;;;;;;;;6242808;22;20193;-82
2023/06/11 14:27:32;;;;;;;3.57;3.23;;;;;;;;;;6242326;22;20292;-81
2023/06/11 14:30:01;;;;;;;4.43;3.43;;;;;;;;;;6243521;23;20189;-82
2023/06/11 14:32:32;;;;;;;3.07;2.83;;;;;;;;;;6243200;23;20231;-82
2023/06/11 14:35:00;;;;;;;6.03;2.80;;;;;;;;;;6243151;23;20198;-82
2023/06/11 14:37:29;;;;;;;2.83;2.53;;;;;;;;;;6243527;23;20221;-82
2023/06/11 14:39:58;;;;;;;1.57;1.47;;;;;;;;;;6243403;23;20193;-82
2023/06/11 14:42:30;;;;;;;3.53;3.03;;;;;;;;;;6240859;23;20207;-82
2023/06/11 14:45:01;;;;;;;6.10;2.70;;;;;;;;;;6245199;23;20174;-82
2023/06/11 14:47:30;;;;;;;5.27;3.07;;;;;;;;;;6245149;23;20185;-82
2023/06/11 14:49:58;;;;;;;4.83;3.17;;;;;;;;;;6242961;23;20173;-82
2023/06/11 14:52:27;;;;;;;3.47;2.70;;;;;;;;;;6243581;23;20184;-81
2023/06/11 14:54:55;;;;;;;3.90;3.23;;;;;;;;;;6243560;23;20201;-82
2023/06/11 14:57:24;;;;;;;2.90;2.70;;;;;;;;;;6243365;23;20166;-82